createdAt,value
2019-01-22T00:00:21.288Z,-2.70
2019-01-22T00:02:50.045Z,-2.70
2019-01-22T00:05:18.655Z,-2.70
2019-01-22T00:07:47.185Z,-2.70
2019-01-22T00:10:16.186Z,-2.80
2019-01-22T00:12:44.954Z,-2.80
2019-01-22T00:15:15.474Z,-2.80
2019-01-22T00:17:45.046Z,-2.80
2019-01-22T00:20:14.924Z,-2.80
2019-01-22T00:22:43.470Z,-2.90
2019-01-22T00:25:13.852Z,-2.90
2019-01-22T00:27:42.462Z,-2.90
2019-01-22T00:30:14.902Z,-2.90
2019-01-22T00:32:43.454Z,-3.00
2019-01-22T00:35:12.456Z,-3.00
2019-01-22T00:37:41.038Z,-3.00
2019-01-22T00:40:13.191Z,-3.00
2019-01-22T00:42:42.480Z,-3.00
2019-01-22T00:45:11.360Z,-3.10
2019-01-22T00:47:40.180Z,-3.00
2019-01-22T00:50:11.797Z,-3.10
2019-01-22T00:52:40.585Z,-3.10
2019-01-22T00:55:11.877Z,-3.10
2019-01-22T00:57:40.826Z,-3.10
2019-01-22T01:00:12.361Z,-3.20
2019-01-22T01:02:40.888Z,-3.20
2019-01-22T01:05:09.962Z,-3.20
2019-01-22T01:07:38.752Z,-3.30
2019-01-22T01:10:10.289Z,-3.30
2019-01-22T01:12:39.164Z,-3.30
2019-01-22T01:15:10.784Z,-3.40
2019-01-22T01:17:39.308Z,-3.40
2019-01-22T01:20:16.872Z,-3.40
2019-01-22T01:22:47.331Z,-3.40
2019-01-22T01:25:18.778Z,-3.50
2019-01-22T01:27:47.685Z,-3.50
2019-01-22T01:30:22.221Z,-3.50
2019-01-22T01:32:51.742Z,-3.60
2019-01-22T01:35:20.585Z,-3.60
2019-01-22T01:37:49.184Z,-3.60
2019-01-22T01:40:18.785Z,-3.60
2019-01-22T01:42:47.473Z,-3.60
2019-01-22T01:45:16.840Z,-3.60
2019-01-22T01:47:45.981Z,-3.60
2019-01-22T01:50:16.613Z,-3.60
2019-01-22T01:52:45.577Z,-3.60
2019-01-22T01:55:15.902Z,-3.60
2019-01-22T01:57:44.497Z,-3.60
2019-01-22T02:00:16.831Z,-3.60
2019-01-22T02:02:45.844Z,-3.60
2019-01-22T02:05:14.611Z,-3.60
2019-01-22T02:07:43.616Z,-3.60
2019-01-22T02:10:15.505Z,-3.60
2019-01-22T02:12:55.714Z,-3.60
2019-01-22T02:15:39.736Z,-3.60
2019-01-22T02:18:23.425Z,-3.60
2019-01-22T02:21:28.493Z,-3.60
2019-01-22T02:24:15.101Z,-3.60
2019-01-22T02:26:49.210Z,-3.60
2019-01-22T02:29:23.806Z,-3.60
2019-01-22T02:32:18.481Z,-3.60
2019-01-22T02:35:02.520Z,-3.60
2019-01-22T02:37:54.829Z,-3.60
2019-01-22T02:40:32.454Z,-3.60
2019-01-22T02:43:10.077Z,-3.60
2019-01-22T02:46:00.133Z,-3.60
2019-01-22T02:48:34.841Z,-3.60
2019-01-22T02:51:06.814Z,-3.60
2019-01-22T02:53:39.018Z,-3.70
2019-01-22T02:56:25.185Z,-3.60
2019-01-22T02:59:19.865Z,-3.60
2019-01-22T03:02:08.236Z,-3.60
2019-01-22T03:04:46.004Z,-3.60
2019-01-22T03:07:35.340Z,-3.60
2019-01-22T03:10:23.611Z,-3.60
2019-01-22T03:13:10.633Z,-3.60
2019-01-22T03:16:09.726Z,-3.50
2019-01-22T03:18:53.294Z,-3.50
2019-01-22T03:21:30.757Z,-3.50
2019-01-22T03:24:20.588Z,-3.40
2019-01-22T03:27:10.962Z,-3.30
2019-01-22T03:29:48.681Z,-3.30
2019-01-22T03:32:23.371Z,-3.30
2019-01-22T03:35:14.972Z,-3.20
2019-01-22T03:38:10.803Z,-3.20
2019-01-22T03:40:45.425Z,-3.20
2019-01-22T03:43:35.389Z,-3.20
2019-01-22T03:46:06.917Z,-3.20
2019-01-22T03:48:38.797Z,-3.20
2019-01-22T03:51:10.365Z,-3.20
2019-01-22T03:53:53.715Z,-3.10
2019-01-22T03:56:30.246Z,-3.10
2019-01-22T03:58:59.525Z,-3.10
2019-01-22T04:01:28.045Z,-3.00
2019-01-22T04:03:56.891Z,-3.00
2019-01-22T04:06:25.828Z,-3.00
2019-01-22T04:08:56.603Z,-3.00
2019-01-22T04:11:26.822Z,-2.90
2019-01-22T04:13:55.563Z,-2.90
2019-01-22T04:16:24.643Z,-2.80
2019-01-22T04:18:53.246Z,-2.80
2019-01-22T04:21:23.828Z,-2.80
2019-01-22T04:24:01.718Z,-2.80
2019-01-22T04:27:01.325Z,-2.80
2019-01-22T04:29:48.202Z,-2.80
2019-01-22T04:32:20.242Z,-2.70
2019-01-22T04:35:00.857Z,-2.70
2019-01-22T04:37:35.389Z,-2.80
2019-01-22T04:40:18.958Z,-2.70
2019-01-22T04:43:05.821Z,-2.80
2019-01-22T04:45:43.690Z,-2.70
2019-01-22T04:48:30.898Z,-2.70
2019-01-22T04:51:14.724Z,-2.70
2019-01-22T04:53:52.428Z,-2.70
2019-01-22T04:56:38.389Z,-2.80
2019-01-22T04:59:31.715Z,-2.70
2019-01-22T05:02:09.275Z,-2.70
2019-01-22T05:04:43.635Z,-2.80
2019-01-22T05:07:21.576Z,-2.80
2019-01-22T05:10:02.212Z,-2.70
2019-01-22T05:12:55.248Z,-2.80
2019-01-22T05:15:36.238Z,-2.70
2019-01-22T05:18:43.044Z,-2.70
2019-01-22T05:21:31.633Z,-2.70
2019-01-22T05:24:22.482Z,-2.70
2019-01-22T05:27:11.720Z,-2.70
2019-01-22T05:30:04.507Z,-2.70
2019-01-22T05:32:39.198Z,-2.70
2019-01-22T05:35:11.231Z,-2.70
2019-01-22T05:37:52.301Z,-2.70
2019-01-22T05:40:24.243Z,-2.60
2019-01-22T05:43:08.043Z,-2.70
2019-01-22T05:45:42.252Z,-2.60
2019-01-22T05:48:13.864Z,-2.60
2019-01-22T05:50:45.468Z,-2.60
2019-01-22T05:53:23.118Z,-2.60
2019-01-22T05:55:55.070Z,-2.60
2019-01-22T05:58:47.672Z,-2.60
2019-01-22T06:01:19.800Z,-2.60
2019-01-22T06:03:57.300Z,-2.50
2019-01-22T06:06:40.956Z,-2.50
2019-01-22T06:09:21.574Z,-2.50
2019-01-22T06:12:10.020Z,-2.50
2019-01-22T06:14:47.317Z,-2.40
2019-01-22T06:17:34.258Z,-2.40
2019-01-22T06:20:08.740Z,-2.40
2019-01-22T06:22:46.196Z,-2.40
2019-01-22T06:25:39.818Z,-2.40
2019-01-22T06:28:14.718Z,-2.40
2019-01-22T06:30:46.349Z,-2.40
2019-01-22T06:33:18.368Z,-2.30
2019-01-22T06:35:55.874Z,-2.30
2019-01-22T06:38:27.475Z,-2.30
2019-01-22T06:41:15.614Z,-2.30
2019-01-22T06:44:13.276Z,-2.30
2019-01-22T06:46:56.769Z,-2.30
2019-01-22T06:49:49.428Z,-2.30
2019-01-22T06:52:39.094Z,-2.30
2019-01-22T06:55:19.249Z,-2.30
2019-01-22T06:58:12.156Z,-2.30
2019-01-22T07:00:49.430Z,-2.30
2019-01-22T07:03:26.820Z,-2.30
2019-01-22T07:06:04.825Z,-2.30
2019-01-22T07:08:41.991Z,-2.30
2019-01-22T07:11:28.645Z,-2.30
2019-01-22T07:14:00.584Z,-2.30
2019-01-22T07:16:49.032Z,-2.30
2019-01-22T07:19:26.508Z,-2.30
2019-01-22T07:22:01.058Z,-2.30
2019-01-22T07:24:35.603Z,-2.30
2019-01-22T07:27:16.245Z,-2.30
2019-01-22T07:30:18.336Z,-2.20
2019-01-22T07:33:05.653Z,-2.20
2019-01-22T07:35:59.128Z,-2.20
2019-01-22T07:38:43.292Z,-2.20
2019-01-22T07:41:20.384Z,-2.20
2019-01-22T07:43:52.260Z,-2.20
2019-01-22T07:46:42.356Z,-2.20
2019-01-22T07:49:17.171Z,-2.20
2019-01-22T07:52:00.894Z,-2.20
2019-01-22T07:54:32.422Z,-2.20
2019-01-22T07:57:12.944Z,-2.20
2019-01-22T07:59:47.735Z,-2.20
2019-01-22T08:02:25.602Z,-2.20
2019-01-22T08:05:04.594Z,-2.20
2019-01-22T08:07:54.358Z,-2.20
2019-01-22T08:10:28.860Z,-2.10
2019-01-22T08:13:15.597Z,-2.10
2019-01-22T08:16:11.176Z,-2.00
2019-01-22T08:18:48.728Z,-2.00
2019-01-22T08:21:29.354Z,-2.00
2019-01-22T08:24:06.738Z,-2.00
2019-01-22T08:26:47.805Z,-2.00
2019-01-22T08:29:34.497Z,-2.00
2019-01-22T08:32:08.842Z,-1.90
2019-01-22T08:34:49.327Z,-1.90
2019-01-22T08:37:38.882Z,-1.80
2019-01-22T08:40:22.329Z,-1.80
2019-01-22T08:42:56.817Z,-1.80
2019-01-22T08:45:33.699Z,-1.80
2019-01-22T08:48:11.591Z,-1.80
2019-01-22T08:50:43.469Z,-1.80
2019-01-22T08:53:23.828Z,-1.70
2019-01-22T08:56:21.317Z,-1.70
2019-01-22T08:58:55.849Z,-1.70
2019-01-22T09:01:36.290Z,-1.60
2019-01-22T09:04:34.051Z,-1.60
2019-01-22T09:07:15.662Z,-1.50
2019-01-22T09:09:50.509Z,-1.40
2019-01-22T09:12:30.673Z,-1.30
2019-01-22T09:15:07.798Z,-1.30
2019-01-22T09:17:55.619Z,-1.20
2019-01-22T09:20:43.671Z,-1.20
2019-01-22T09:23:21.125Z,-1.20
2019-01-22T09:25:52.677Z,-1.10
2019-01-22T09:28:24.262Z,-1.00
2019-01-22T09:30:55.861Z,-0.90
2019-01-22T09:33:36.307Z,-0.90
2019-01-22T09:36:07.915Z,-0.80
2019-01-22T09:38:36.536Z,-0.80
2019-01-22T09:41:05.071Z,-0.70
2019-01-22T09:43:33.526Z,-0.70
2019-01-22T09:46:04.920Z,-0.70
2019-01-22T09:48:35.326Z,-0.70
2019-01-22T09:51:04.208Z,-0.70
2019-01-22T09:53:33.209Z,-0.70
2019-01-22T09:56:04.077Z,-0.70
2019-01-22T09:58:32.815Z,-0.70
2019-01-22T10:01:04.957Z,-0.70
2019-01-22T10:03:33.446Z,-0.70
2019-01-22T10:06:01.908Z,-0.70
2019-01-22T10:08:31.311Z,-0.70
2019-01-22T10:11:01.827Z,-0.80
2019-01-22T10:13:30.620Z,-0.70
2019-01-22T10:15:59.293Z,-0.80
2019-01-22T10:18:28.653Z,-0.80
2019-01-22T10:20:57.432Z,-0.70
2019-01-22T10:23:25.989Z,-0.70
2019-01-22T10:25:54.786Z,-0.70
2019-01-22T10:28:23.620Z,-0.80
2019-01-22T10:30:52.132Z,-0.90
2019-01-22T10:33:21.006Z,-1.00
2019-01-22T10:35:50.958Z,-1.00
2019-01-22T10:38:19.414Z,-1.00
2019-01-22T10:40:48.806Z,-1.10
2019-01-22T10:43:17.404Z,-1.10
2019-01-22T10:45:46.945Z,-1.20
2019-01-22T10:48:19.648Z,-1.30
2019-01-22T10:50:49.281Z,-1.30
2019-01-22T10:53:18.032Z,-1.30
2019-01-22T10:55:46.804Z,-1.20
2019-01-22T10:58:16.146Z,-1.20
2019-01-22T11:00:44.668Z,-1.20
2019-01-22T11:03:13.392Z,-1.10
2019-01-22T11:05:42.757Z,-1.10
2019-01-22T11:08:12.466Z,-1.00
2019-01-22T11:10:41.211Z,-1.00
2019-01-22T11:13:10.128Z,-1.10
2019-01-22T11:15:38.872Z,-1.10
2019-01-22T11:18:07.435Z,-1.00
2019-01-22T11:20:37.303Z,-1.00
2019-01-22T11:23:06.204Z,-1.00
2019-01-22T11:25:36.018Z,-0.90
2019-01-22T11:28:04.736Z,-0.90
2019-01-22T11:30:33.178Z,-0.90
2019-01-22T11:33:01.690Z,-0.80
2019-01-22T11:35:30.492Z,-0.90
2019-01-22T11:37:59.330Z,-0.90
2019-01-22T11:40:33.530Z,-0.80
2019-01-22T11:43:02.354Z,-0.80
2019-01-22T11:45:31.237Z,-0.80
2019-01-22T11:48:00.053Z,-0.80
2019-01-22T11:50:28.569Z,-0.80
2019-01-22T11:52:57.514Z,-0.70
2019-01-22T11:55:26.388Z,-0.70
2019-01-22T11:57:54.852Z,-0.70
2019-01-22T12:00:31.125Z,-0.80
2019-01-22T12:03:00.814Z,-0.70
2019-01-22T12:05:29.346Z,-0.70
2019-01-22T12:07:58.548Z,-0.70
2019-01-22T12:10:27.480Z,-0.70
2019-01-22T12:12:55.995Z,-0.70
2019-01-22T12:15:25.227Z,-0.70
2019-01-22T12:17:54.105Z,-0.80
2019-01-22T12:20:25.908Z,-0.80
2019-01-22T12:22:54.566Z,-0.70
2019-01-22T12:25:27.372Z,-0.70
2019-01-22T12:27:56.272Z,-0.70
2019-01-22T12:30:30.408Z,-0.70
2019-01-22T12:33:00.602Z,-0.60
2019-01-22T12:35:34.585Z,-0.70
2019-01-22T12:38:00.902Z,-0.70
2019-01-22T12:40:29.896Z,-0.70
2019-01-22T12:42:59.447Z,-0.70
2019-01-22T12:45:34.026Z,-0.70
2019-01-22T12:48:02.508Z,-0.70
2019-01-22T12:50:31.096Z,-0.70
2019-01-22T12:52:59.904Z,-0.60
2019-01-22T12:55:28.672Z,-0.60
2019-01-22T12:57:58.955Z,-0.60
2019-01-22T13:00:33.668Z,-0.60
2019-01-22T13:03:02.699Z,-0.60
2019-01-22T13:05:37.314Z,-0.60
2019-01-22T13:08:06.463Z,-0.60
2019-01-22T13:10:35.251Z,-0.60
2019-01-22T13:13:04.332Z,-0.50
2019-01-22T13:15:33.224Z,-0.50
2019-01-22T13:18:01.677Z,-0.50
2019-01-22T13:20:30.482Z,-0.50
2019-01-22T13:23:00.342Z,-0.50
2019-01-22T13:25:29.106Z,-0.50
2019-01-22T13:27:57.821Z,-0.40
2019-01-22T13:30:27.935Z,-0.40
2019-01-22T13:32:56.617Z,-0.40
2019-01-22T13:35:25.256Z,-0.40
2019-01-22T13:37:53.746Z,-0.40
2019-01-22T13:40:22.516Z,-0.40
2019-01-22T13:42:51.639Z,-0.40
2019-01-22T13:45:25.514Z,-0.40
2019-01-22T13:47:55.339Z,-0.40
2019-01-22T13:50:24.735Z,-0.40
2019-01-22T13:52:53.755Z,-0.40
2019-01-22T13:55:28.272Z,-0.40
2019-01-22T13:57:57.188Z,-0.40
2019-01-22T14:00:27.381Z,-0.40
2019-01-22T14:02:57.200Z,-0.40
2019-01-22T14:05:26.465Z,-0.40
2019-01-22T14:07:55.262Z,-0.30
2019-01-22T14:10:24.039Z,-0.30
2019-01-22T14:12:52.929Z,-0.30
2019-01-22T14:15:24.630Z,-0.30
2019-01-22T14:17:53.312Z,-0.30
2019-01-22T14:20:21.853Z,-0.30
2019-01-22T14:22:50.631Z,-0.30
2019-01-22T14:25:23.458Z,-0.30
2019-01-22T14:27:51.960Z,-0.30
2019-01-22T14:30:26.012Z,-0.30
2019-01-22T14:32:54.813Z,-0.20
2019-01-22T14:35:23.505Z,-0.20
2019-01-22T14:37:52.485Z,-0.20
2019-01-22T14:40:21.302Z,-0.20
2019-01-22T14:42:50.043Z,-0.20
2019-01-22T14:45:21.193Z,-0.20
2019-01-22T14:47:49.644Z,-0.20
2019-01-22T14:50:21.536Z,-0.20
2019-01-22T14:52:50.442Z,-0.20
2019-01-22T14:55:18.890Z,-0.20
2019-01-22T14:57:54.130Z,-0.20
2019-01-22T15:00:24.632Z,-0.20
2019-01-22T15:02:54.290Z,-0.20
2019-01-22T15:05:22.901Z,-0.20
2019-01-22T15:07:51.770Z,-0.20
2019-01-22T15:10:20.922Z,-0.30
2019-01-22T15:12:54.770Z,-0.20
2019-01-22T15:15:23.349Z,-0.20
2019-01-22T15:17:51.846Z,-0.20
2019-01-22T15:20:22.298Z,-0.20
2019-01-22T15:22:50.826Z,-0.20
2019-01-22T15:25:19.589Z,-0.20
2019-01-22T15:27:48.131Z,-0.20
2019-01-22T15:30:19.948Z,-0.20
2019-01-22T15:32:51.474Z,-0.20
2019-01-22T15:35:19.971Z,-0.20
2019-01-22T15:37:48.449Z,-0.20
2019-01-22T15:40:19.721Z,-0.20
2019-01-22T15:42:48.522Z,-0.20
2019-01-22T15:45:17.116Z,-0.30
2019-01-22T15:47:45.624Z,-0.30
2019-01-22T15:50:19.762Z,-0.30
2019-01-22T15:52:48.640Z,-0.30
2019-01-22T15:55:20.167Z,-0.30
2019-01-22T15:57:48.785Z,-0.30
2019-01-22T16:00:22.469Z,-0.40
2019-01-22T16:02:50.977Z,-0.40
2019-01-22T16:05:19.625Z,-0.40
2019-01-22T16:07:48.429Z,-0.40
2019-01-22T16:10:17.423Z,-0.40
2019-01-22T16:12:45.898Z,-0.40
2019-01-22T16:15:17.297Z,-0.40
2019-01-22T16:17:45.907Z,-0.40
2019-01-22T16:20:19.404Z,-0.40
2019-01-22T16:22:50.249Z,-0.40
2019-01-22T16:25:19.121Z,-0.40
2019-01-22T16:27:47.953Z,-0.40
2019-01-22T16:30:18.779Z,-0.40
2019-01-22T16:32:47.338Z,-0.40
2019-01-22T16:35:18.803Z,-0.40
2019-01-22T16:37:47.655Z,-0.40
2019-01-22T16:40:17.446Z,-0.40
2019-01-22T16:42:46.927Z,-0.40
2019-01-22T16:45:21.257Z,-0.40
2019-01-22T16:47:50.106Z,-0.40
2019-01-22T16:50:18.627Z,-0.40
2019-01-22T16:52:47.608Z,-0.40
2019-01-22T16:55:25.295Z,-0.40
2019-01-22T16:57:53.801Z,-0.40
2019-01-22T17:00:25.213Z,-0.40
2019-01-22T17:02:54.090Z,-0.40
2019-01-22T17:05:22.733Z,-0.40
2019-01-22T17:07:51.263Z,-0.40
2019-01-22T17:10:20.559Z,-0.30
2019-01-22T17:12:49.615Z,-0.30
2019-01-22T17:15:18.527Z,-0.40
2019-01-22T17:17:46.999Z,-0.30
2019-01-22T17:20:24.783Z,-0.40
2019-01-22T17:22:53.599Z,-0.40
2019-01-22T17:25:22.216Z,-0.40
2019-01-22T17:27:51.073Z,-0.40
2019-01-22T17:30:21.478Z,-0.40
2019-01-22T17:32:54.655Z,-0.40
2019-01-22T17:35:24.833Z,-0.40
2019-01-22T17:37:53.305Z,-0.40
2019-01-22T17:40:25.145Z,-0.40
2019-01-22T17:42:53.633Z,-0.40
2019-01-22T17:45:22.086Z,-0.40
2019-01-22T17:47:50.539Z,-0.30
2019-01-22T17:50:19.041Z,-0.30
2019-01-22T17:52:47.546Z,-0.30
2019-01-22T17:55:15.995Z,-0.30
2019-01-22T17:57:44.482Z,-0.30
2019-01-22T18:00:19.816Z,-0.30
2019-01-22T18:02:48.359Z,-0.30
2019-01-22T18:05:19.536Z,-0.30
2019-01-22T18:07:48.601Z,-0.30
2019-01-22T18:10:19.591Z,-0.30
2019-01-22T18:12:48.114Z,-0.30
2019-01-22T18:15:17.113Z,-0.30
2019-01-22T18:17:45.600Z,-0.30
2019-01-22T18:20:19.806Z,-0.30
2019-01-22T18:22:48.306Z,-0.30
2019-01-22T18:25:17.127Z,-0.30
2019-01-22T18:27:45.572Z,-0.30
2019-01-22T18:30:20.066Z,-0.30
2019-01-22T18:32:48.550Z,-0.30
2019-01-22T18:35:20.228Z,-0.30
2019-01-22T18:37:49.081Z,-0.30
2019-01-22T18:40:17.973Z,-0.30
2019-01-22T18:42:46.494Z,-0.20
2019-01-22T18:45:16.988Z,-0.20
2019-01-22T18:47:45.498Z,-0.20
2019-01-22T18:50:17.022Z,-0.20
2019-01-22T18:52:45.496Z,-0.20
2019-01-22T18:55:13.964Z,-0.20
2019-01-22T18:57:42.408Z,-0.20
2019-01-22T19:00:14.412Z,-0.20
2019-01-22T19:02:42.882Z,-0.20
2019-01-22T19:05:11.738Z,-0.20
2019-01-22T19:07:40.620Z,-0.10
2019-01-22T19:10:15.318Z,-0.10
2019-01-22T19:12:43.760Z,-0.20
2019-01-22T19:15:15.051Z,-0.20
2019-01-22T19:17:43.804Z,-0.10
2019-01-22T19:20:13.306Z,-0.10
2019-01-22T19:22:41.969Z,-0.10
2019-01-22T19:25:13.644Z,-0.10
2019-01-22T19:27:43.092Z,-0.10
2019-01-22T19:30:24.004Z,-0.10
2019-01-22T19:32:52.597Z,-0.10
2019-01-22T19:35:23.310Z,-0.10
2019-01-22T19:37:52.130Z,-0.10
2019-01-22T19:40:22.183Z,-0.10
2019-01-22T19:42:50.683Z,0.00
2019-01-22T19:45:22.156Z,0.00
2019-01-22T19:47:50.605Z,0.00
2019-01-22T19:50:19.553Z,0.00
2019-01-22T19:52:48.443Z,0.00
2019-01-22T19:55:17.198Z,0.00
2019-01-22T19:57:46.573Z,0.10
2019-01-22T20:00:23.904Z,0.10
2019-01-22T20:02:52.672Z,0.10
2019-01-22T20:05:21.408Z,0.10
2019-01-22T20:07:49.902Z,0.10
2019-01-22T20:10:19.017Z,0.10
2019-01-22T20:12:47.553Z,0.10
2019-01-22T20:15:18.615Z,0.10
2019-01-22T20:17:47.061Z,0.10
2019-01-22T20:20:18.222Z,0.10
2019-01-22T20:22:47.150Z,0.10
2019-01-22T20:25:16.757Z,0.10
2019-01-22T20:27:48.288Z,0.10
2019-01-22T20:30:24.657Z,0.10
2019-01-22T20:32:53.479Z,0.10
2019-01-22T20:35:22.000Z,0.10
2019-01-22T20:37:50.920Z,0.10
2019-01-22T20:40:19.514Z,0.10
2019-01-22T20:42:48.044Z,0.10
2019-01-22T20:45:24.714Z,0.10
2019-01-22T20:47:53.169Z,0.10
2019-01-22T20:50:21.611Z,0.10
2019-01-22T20:52:50.204Z,0.10
2019-01-22T20:55:23.615Z,0.10
2019-01-22T20:57:55.026Z,0.10
2019-01-22T21:00:23.910Z,0.10
2019-01-22T21:02:52.725Z,0.10
2019-01-22T21:05:23.965Z,0.10
2019-01-22T21:07:54.634Z,0.10
2019-01-22T21:10:31.683Z,0.10
2019-01-22T21:13:00.642Z,0.20
2019-01-22T21:15:29.079Z,0.10
2019-01-22T21:17:57.530Z,0.20
2019-01-22T21:20:26.475Z,0.20
2019-01-22T21:22:56.652Z,0.10
2019-01-22T21:25:25.955Z,0.20
2019-01-22T21:28:01.362Z,0.20
2019-01-22T21:30:33.474Z,0.10
2019-01-22T21:33:02.811Z,0.20
2019-01-22T21:35:31.642Z,0.10
2019-01-22T21:38:00.534Z,0.20
2019-01-22T21:40:29.470Z,0.20
2019-01-22T21:42:58.184Z,0.10
2019-01-22T21:45:28.630Z,0.20
2019-01-22T21:47:57.330Z,0.20
2019-01-22T21:50:25.939Z,0.10
2019-01-22T21:52:56.478Z,0.10
2019-01-22T21:55:25.250Z,0.10
2019-01-22T21:57:54.418Z,0.10
2019-01-22T22:00:27.214Z,0.10
2019-01-22T22:02:56.512Z,0.10
2019-01-22T22:05:28.662Z,0.10
2019-01-22T22:07:58.675Z,0.10
2019-01-22T22:10:27.682Z,0.10
2019-01-22T22:12:56.695Z,0.10
2019-01-22T22:15:30.985Z,0.10
2019-01-22T22:17:59.902Z,0.10
2019-01-22T22:20:28.967Z,0.10
2019-01-22T22:22:57.790Z,0.10
2019-01-22T22:25:27.107Z,0.10
2019-01-22T22:27:56.043Z,0.10
2019-01-22T22:30:29.575Z,0.10
2019-01-22T22:32:58.766Z,0.10
2019-01-22T22:35:28.690Z,0.10
2019-01-22T22:37:59.286Z,0.10
2019-01-22T22:40:28.268Z,0.10
2019-01-22T22:42:57.669Z,0.10
2019-01-22T22:45:26.812Z,0.10
2019-01-22T22:47:56.031Z,0.10
2019-01-22T22:50:32.325Z,0.10
2019-01-22T22:53:01.454Z,0.10
2019-01-22T22:55:30.231Z,0.20
2019-01-22T22:58:00.043Z,0.20
2019-01-22T23:00:40.047Z,0.20
2019-01-22T23:03:29.214Z,0.20
2019-01-22T23:05:57.844Z,0.20
2019-01-22T23:08:26.833Z,0.20
2019-01-22T23:10:56.932Z,0.20
2019-01-22T23:13:29.193Z,0.20
2019-01-22T23:15:59.433Z,0.20
2019-01-22T23:18:27.989Z,0.20
2019-01-22T23:20:57.575Z,0.20
2019-01-22T23:23:26.405Z,0.20
2019-01-22T23:25:55.173Z,0.20
2019-01-22T23:28:28.790Z,0.20
2019-01-22T23:30:54.301Z,0.30
2019-01-22T23:33:23.138Z,0.30
2019-01-22T23:35:51.739Z,0.30
2019-01-22T23:38:20.569Z,0.20
2019-01-22T23:40:49.434Z,0.20
2019-01-22T23:43:18.072Z,0.20
2019-01-22T23:45:46.623Z,0.20
2019-01-22T23:48:15.172Z,0.30
2019-01-22T23:50:43.749Z,0.30
2019-01-22T23:53:12.294Z,0.20
2019-01-22T23:55:40.801Z,0.20
2019-01-22T23:58:09.637Z,0.20
